sensor_id;sensor_type;location;lat;lon;timestamp;temperature;humidity
30473;DHT22;17263;48.160;11.452;2023-06-22T00:01:56;21.40;99.90
30473;DHT22;17263;48.160;11.452;2023-06-22T00:04:22;21.40;99.90
30473;DHT22;17263;48.160;11.452;2023-06-22T00:06:48;21.30;99.90
30473;DHT22;17263;48.160;11.452;2023-06-22T00:09:14;21.40;99.90
30473;DHT22;17263;48.160;11.452;2023-06-22T00:11:40;21.30;99.90
30473;DHT22;17263;48.160;11.452;2023-06-22T00:14:06;21.40;99.90
30473;DHT22;17263;48.160;11.452;2023-06-22T00:16:33;21.40;99.90
30473;DHT22;17263;48.160;11.452;2023-06-22T00:18:59;21.40;99.90
30473;DHT22;17263;48.160;11.452;2023-06-22T00:21:29;21.30;99.90
30473;DHT22;17263;48.160;11.452;2023-06-22T00:23:56;21.30;99.90
30473;DHT22;17263;48.160;11.452;2023-06-22T00:26:23;21.30;99.90
30473;DHT22;17263;48.160;11.452;2023-06-22T00:28:49;21.30;99.90
30473;DHT22;17263;48.160;11.452;2023-06-22T00:31:15;21.20;99.90
30473;DHT22;17263;48.160;11.452;2023-06-22T00:33:41;21.20;99.90
30473;DHT22;17263;48.160;11.452;2023-06-22T00:36:07;21.20;99.90
30473;DHT22;17263;48.160;11.452;2023-06-22T00:38:38;21.10;99.90
30473;DHT22;17263;48.160;11.452;2023-06-22T00:41:06;21.10;99.90
30473;DHT22;17263;48.160;11.452;2023-06-22T00:43:32;21.10;99.90
30473;DHT22;17263;48.160;11.452;2023-06-22T00:45:58;21.10;99.90
30473;DHT22;17263;48.160;11.452;2023-06-22T00:48:24;21.10;99.90
30473;DHT22;17263;48.160;11.452;2023-06-22T00:50:50;21.00;99.90
30473;DHT22;17263;48.160;11.452;2023-06-22T00:53:19;20.90;99.90
30473;DHT22;17263;48.160;11.452;2023-06-22T00:55:46;20.90;99.90
30473;DHT22;17263;48.160;11.452;2023-06-22T00:58:18;20.90;99.90
30473;DHT22;17263;48.160;11.452;2023-06-22T01:00:47;20.90;99.90
30473;DHT22;17263;48.160;11.452;2023-06-22T01:03:13;20.90;99.90
30473;DHT22;17263;48.160;11.452;2023-06-22T01:05:40;20.90;99.90
30473;DHT22;17263;48.160;11.452;2023-06-22T01:10:51;20.90;99.90
30473;DHT22;17263;48.160;11.452;2023-06-22T01:16:17;20.80;99.90
30473;DHT22;17263;48.160;11.452;2023-06-22T01:18:44;20.80;99.90
30473;DHT22;17263;48.160;11.452;2023-06-22T01:21:16;20.70;99.90
30473;DHT22;17263;48.160;11.452;2023-06-22T01:26:46;20.60;99.90
30473;DHT22;17263;48.160;11.452;2023-06-22T01:29:17;20.60;99.90
30473;DHT22;17263;48.160;11.452;2023-06-22T01:31:44;20.60;99.90
30473;DHT22;17263;48.160;11.452;2023-06-22T01:34:11;20.60;99.90
30473;DHT22;17263;48.160;11.452;2023-06-22T01:36:39;20.60;99.90
30473;DHT22;17263;48.160;11.452;2023-06-22T01:39:06;20.50;99.90
30473;DHT22;17263;48.160;11.452;2023-06-22T01:41:35;20.50;99.90
30473;DHT22;17263;48.160;11.452;2023-06-22T01:44:06;20.50;99.90
30473;DHT22;17263;48.160;11.452;2023-06-22T01:46:36;20.50;99.90
30473;DHT22;17263;48.160;11.452;2023-06-22T01:49:03;20.50;99.90
30473;DHT22;17263;48.160;11.452;2023-06-22T01:51:30;20.50;99.90
30473;DHT22;17263;48.160;11.452;2023-06-22T01:53:56;20.50;99.90
30473;DHT22;17263;48.160;11.452;2023-06-22T01:56:22;20.50;99.90
30473;DHT22;17263;48.160;11.452;2023-06-22T01:58:55;20.40;99.90
30473;DHT22;17263;48.160;11.452;2023-06-22T02:01:28;20.50;99.90
30473;DHT22;17263;48.160;11.452;2023-06-22T02:04:11;20.40;99.90
30473;DHT22;17263;48.160;11.452;2023-06-22T02:06:39;20.40;99.90
30473;DHT22;17263;48.160;11.452;2023-06-22T02:09:15;20.30;99.90
30473;DHT22;17263;48.160;11.452;2023-06-22T02:11:44;20.30;99.90
30473;DHT22;17263;48.160;11.452;2023-06-22T02:14:13;20.30;99.90
30473;DHT22;17263;48.160;11.452;2023-06-22T02:16:40;20.20;99.90
30473;DHT22;17263;48.160;11.452;2023-06-22T02:19:06;20.30;99.90
30473;DHT22;17263;48.160;11.452;2023-06-22T02:21:32;20.30;99.90
30473;DHT22;17263;48.160;11.452;2023-06-22T02:23:58;20.30;99.90
30473;DHT22;17263;48.160;11.452;2023-06-22T02:26:26;20.30;99.90
30473;DHT22;17263;48.160;11.452;2023-06-22T02:28:52;20.30;99.90
30473;DHT22;17263;48.160;11.452;2023-06-22T02:31:18;20.20;99.90
30473;DHT22;17263;48.160;11.452;2023-06-22T02:33:44;20.20;99.90
30473;DHT22;17263;48.160;11.452;2023-06-22T02:36:11;20.20;99.90
30473;DHT22;17263;48.160;11.452;2023-06-22T02:38:41;20.20;99.90
30473;DHT22;17263;48.160;11.452;2023-06-22T02:41:15;20.10;99.90
30473;DHT22;17263;48.160;11.452;2023-06-22T02:43:47;20.10;99.90
30473;DHT22;17263;48.160;11.452;2023-06-22T02:46:13;20.00;99.90
30473;DHT22;17263;48.160;11.452;2023-06-22T02:48:40;20.00;99.90
30473;DHT22;17263;48.160;11.452;2023-06-22T02:51:06;20.00;99.90
30473;DHT22;17263;48.160;11.452;2023-06-22T02:53:33;19.90;99.90
30473;DHT22;17263;48.160;11.452;2023-06-22T02:56:00;19.90;99.90
30473;DHT22;17263;48.160;11.452;2023-06-22T02:58:27;19.90;99.90
30473;DHT22;17263;48.160;11.452;2023-06-22T03:00:53;19.90;99.90
30473;DHT22;17263;48.160;11.452;2023-06-22T03:03:19;19.80;99.90
30473;DHT22;17263;48.160;11.452;2023-06-22T03:05:45;19.80;99.90
30473;DHT22;17263;48.160;11.452;2023-06-22T03:08:11;19.80;99.90
30473;DHT22;17263;48.160;11.452;2023-06-22T03:10:37;19.80;99.90
30473;DHT22;17263;48.160;11.452;2023-06-22T03:13:04;19.70;99.90
30473;DHT22;17263;48.160;11.452;2023-06-22T03:15:30;19.60;99.90
30473;DHT22;17263;48.160;11.452;2023-06-22T03:17:57;19.60;99.90
30473;DHT22;17263;48.160;11.452;2023-06-22T03:20:23;19.60;99.90
30473;DHT22;17263;48.160;11.452;2023-06-22T03:22:49;19.60;99.90
30473;DHT22;17263;48.160;11.452;2023-06-22T03:25:15;19.60;99.90
30473;DHT22;17263;48.160;11.452;2023-06-22T03:27:42;19.50;99.90
30473;DHT22;17263;48.160;11.452;2023-06-22T03:30:11;19.50;99.90
30473;DHT22;17263;48.160;11.452;2023-06-22T03:32:37;19.50;99.90
30473;DHT22;17263;48.160;11.452;2023-06-22T03:35:03;19.50;99.90
30473;DHT22;17263;48.160;11.452;2023-06-22T03:37:32;19.50;99.90
30473;DHT22;17263;48.160;11.452;2023-06-22T03:39:58;19.50;99.90
30473;DHT22;17263;48.160;11.452;2023-06-22T03:42:24;19.40;99.90
30473;DHT22;17263;48.160;11.452;2023-06-22T03:44:50;19.40;99.90
30473;DHT22;17263;48.160;11.452;2023-06-22T03:47:16;19.50;99.90
30473;DHT22;17263;48.160;11.452;2023-06-22T03:49:42;19.40;99.90
30473;DHT22;17263;48.160;11.452;2023-06-22T03:52:08;19.40;99.90
30473;DHT22;17263;48.160;11.452;2023-06-22T03:54:35;19.40;99.90
30473;DHT22;17263;48.160;11.452;2023-06-22T03:57:01;19.50;99.90
30473;DHT22;17263;48.160;11.452;2023-06-22T03:59:27;19.40;99.90
30473;DHT22;17263;48.160;11.452;2023-06-22T04:01:53;19.50;99.90
30473;DHT22;17263;48.160;11.452;2023-06-22T04:04:19;19.50;99.90
30473;DHT22;17263;48.160;11.452;2023-06-22T04:06:45;19.60;99.90
30473;DHT22;17263;48.160;11.452;2023-06-22T04:09:11;19.60;99.90
30473;DHT22;17263;48.160;11.452;2023-06-22T04:11:37;19.70;99.90
30473;DHT22;17263;48.160;11.452;2023-06-22T04:14:03;19.80;99.90
30473;DHT22;17263;48.160;11.452;2023-06-22T04:16:29;19.80;99.90
30473;DHT22;17263;48.160;11.452;2023-06-22T04:18:55;19.90;99.90
30473;DHT22;17263;48.160;11.452;2023-06-22T04:21:21;20.00;99.90
30473;DHT22;17263;48.160;11.452;2023-06-22T04:23:47;20.10;99.90
30473;DHT22;17263;48.160;11.452;2023-06-22T04:26:14;20.20;99.90
30473;DHT22;17263;48.160;11.452;2023-06-22T04:28:40;20.20;99.90
30473;DHT22;17263;48.160;11.452;2023-06-22T04:31:06;20.30;99.90
30473;DHT22;17263;48.160;11.452;2023-06-22T04:33:33;20.40;99.90
30473;DHT22;17263;48.160;11.452;2023-06-22T04:35:59;20.50;99.90
30473;DHT22;17263;48.160;11.452;2023-06-22T04:38:27;20.60;99.90
30473;DHT22;17263;48.160;11.452;2023-06-22T04:40:53;20.70;99.90
30473;DHT22;17263;48.160;11.452;2023-06-22T04:43:19;20.70;99.90
30473;DHT22;17263;48.160;11.452;2023-06-22T04:45:45;20.80;99.90
30473;DHT22;17263;48.160;11.452;2023-06-22T04:48:12;20.90;99.90
30473;DHT22;17263;48.160;11.452;2023-06-22T04:50:42;20.90;99.90
30473;DHT22;17263;48.160;11.452;2023-06-22T04:53:08;21.10;99.90
30473;DHT22;17263;48.160;11.452;2023-06-22T04:55:35;21.30;99.90
30473;DHT22;17263;48.160;11.452;2023-06-22T04:58:03;21.40;99.90
30473;DHT22;17263;48.160;11.452;2023-06-22T05:00:31;21.40;99.90
30473;DHT22;17263;48.160;11.452;2023-06-22T05:02:57;21.50;99.90
30473;DHT22;17263;48.160;11.452;2023-06-22T05:05:29;21.60;99.90
30473;DHT22;17263;48.160;11.452;2023-06-22T05:07:56;22.00;99.90
30473;DHT22;17263;48.160;11.452;2023-06-22T05:10:26;22.40;99.90
30473;DHT22;17263;48.160;11.452;2023-06-22T05:12:52;22.70;99.90
30473;DHT22;17263;48.160;11.452;2023-06-22T05:15:18;23.00;99.90
30473;DHT22;17263;48.160;11.452;2023-06-22T05:17:48;23.40;99.90
30473;DHT22;17263;48.160;11.452;2023-06-22T05:20:14;24.10;99.90
30473;DHT22;17263;48.160;11.452;2023-06-22T05:22:43;24.50;99.90
30473;DHT22;17263;48.160;11.452;2023-06-22T05:25:11;24.90;99.90
30473;DHT22;17263;48.160;11.452;2023-06-22T05:27:37;25.10;99.90
30473;DHT22;17263;48.160;11.452;2023-06-22T05:30:07;25.20;99.90
30473;DHT22;17263;48.160;11.452;2023-06-22T05:32:33;25.50;99.90
30473;DHT22;17263;48.160;11.452;2023-06-22T05:34:59;26.10;99.90
30473;DHT22;17263;48.160;11.452;2023-06-22T05:37:26;26.40;99.90
30473;DHT22;17263;48.160;11.452;2023-06-22T05:39:52;26.60;99.90
30473;DHT22;17263;48.160;11.452;2023-06-22T05:42:18;27.00;99.90
30473;DHT22;17263;48.160;11.452;2023-06-22T05:44:44;27.20;99.90
30473;DHT22;17263;48.160;11.452;2023-06-22T05:47:10;27.20;99.90
30473;DHT22;17263;48.160;11.452;2023-06-22T05:49:36;27.30;99.90
30473;DHT22;17263;48.160;11.452;2023-06-22T05:52:02;27.40;99.90
30473;DHT22;17263;48.160;11.452;2023-06-22T05:54:28;27.50;99.90
30473;DHT22;17263;48.160;11.452;2023-06-22T05:56:54;27.70;99.90
30473;DHT22;17263;48.160;11.452;2023-06-22T05:59:20;27.90;99.90
30473;DHT22;17263;48.160;11.452;2023-06-22T06:01:46;28.10;99.90
30473;DHT22;17263;48.160;11.452;2023-06-22T06:04:19;28.50;99.90
30473;DHT22;17263;48.160;11.452;2023-06-22T06:06:45;28.90;99.90
30473;DHT22;17263;48.160;11.452;2023-06-22T06:09:14;29.20;99.90
30473;DHT22;17263;48.160;11.452;2023-06-22T06:11:40;29.40;99.90
30473;DHT22;17263;48.160;11.452;2023-06-22T06:14:06;29.60;99.90
30473;DHT22;17263;48.160;11.452;2023-06-22T06:16:32;29.90;99.90
30473;DHT22;17263;48.160;11.452;2023-06-22T06:18:58;30.00;99.90
30473;DHT22;17263;48.160;11.452;2023-06-22T06:21:24;30.30;99.70
30473;DHT22;17263;48.160;11.452;2023-06-22T06:23:50;30.20;99.60
30473;DHT22;17263;48.160;11.452;2023-06-22T06:26:16;30.40;99.00
30473;DHT22;17263;48.160;11.452;2023-06-22T06:28:43;30.70;98.30
30473;DHT22;17263;48.160;11.452;2023-06-22T06:31:09;30.80;97.60
30473;DHT22;17263;48.160;11.452;2023-06-22T06:33:36;30.70;96.80
30473;DHT22;17263;48.160;11.452;2023-06-22T06:36:02;30.90;96.80
30473;DHT22;17263;48.160;11.452;2023-06-22T06:38:32;30.70;96.60
30473;DHT22;17263;48.160;11.452;2023-06-22T06:40:58;30.70;96.50
30473;DHT22;17263;48.160;11.452;2023-06-22T06:43:25;30.70;96.20
30473;DHT22;17263;48.160;11.452;2023-06-22T06:45:51;30.50;96.20
30473;DHT22;17263;48.160;11.452;2023-06-22T06:48:17;30.70;96.10
30473;DHT22;17263;48.160;11.452;2023-06-22T06:50:43;30.90;95.70
30473;DHT22;17263;48.160;11.452;2023-06-22T06:53:10;31.10;95.50
30473;DHT22;17263;48.160;11.452;2023-06-22T06:55:36;31.40;94.80
30473;DHT22;17263;48.160;11.452;2023-06-22T06:58:02;31.70;93.60
30473;DHT22;17263;48.160;11.452;2023-06-22T07:00:30;31.60;93.90
30473;DHT22;17263;48.160;11.452;2023-06-22T07:02:56;31.70;93.60
30473;DHT22;17263;48.160;11.452;2023-06-22T07:05:22;32.10;93.00
30473;DHT22;17263;48.160;11.452;2023-06-22T07:07:48;32.00;92.40
30473;DHT22;17263;48.160;11.452;2023-06-22T07:10:14;32.10;92.40
30473;DHT22;17263;48.160;11.452;2023-06-22T07:12:41;32.20;92.00
30473;DHT22;17263;48.160;11.452;2023-06-22T07:15:08;32.30;92.00
30473;DHT22;17263;48.160;11.452;2023-06-22T07:17:35;32.60;91.30
30473;DHT22;17263;48.160;11.452;2023-06-22T07:20:03;32.40;90.60
30473;DHT22;17263;48.160;11.452;2023-06-22T07:22:34;31.80;91.10
30473;DHT22;17263;48.160;11.452;2023-06-22T07:25:00;32.00;91.20
30473;DHT22;17263;48.160;11.452;2023-06-22T07:27:27;32.00;91.20
30473;DHT22;17263;48.160;11.452;2023-06-22T07:29:53;32.20;91.50
30473;DHT22;17263;48.160;11.452;2023-06-22T07:32:21;32.60;90.70
30473;DHT22;17263;48.160;11.452;2023-06-22T07:34:47;32.60;90.10
30473;DHT22;17263;48.160;11.452;2023-06-22T07:37:13;32.50;90.00
30473;DHT22;17263;48.160;11.452;2023-06-22T07:39:39;32.70;89.10
30473;DHT22;17263;48.160;11.452;2023-06-22T07:42:05;32.90;87.70
30473;DHT22;17263;48.160;11.452;2023-06-22T07:44:31;32.70;88.40
30473;DHT22;17263;48.160;11.452;2023-06-22T07:46:57;33.00;88.00
30473;DHT22;17263;48.160;11.452;2023-06-22T07:49:23;33.10;87.30
30473;DHT22;17263;48.160;11.452;2023-06-22T07:51:49;33.20;86.70
30473;DHT22;17263;48.160;11.452;2023-06-22T07:54:15;33.40;85.50
30473;DHT22;17263;48.160;11.452;2023-06-22T07:56:42;33.40;85.10
30473;DHT22;17263;48.160;11.452;2023-06-22T07:59:08;33.40;84.60
30473;DHT22;17263;48.160;11.452;2023-06-22T08:01:34;33.30;84.30
30473;DHT22;17263;48.160;11.452;2023-06-22T08:04:00;33.40;85.00
30473;DHT22;17263;48.160;11.452;2023-06-22T08:06:30;33.40;84.20
30473;DHT22;17263;48.160;11.452;2023-06-22T08:08:56;33.20;83.70
30473;DHT22;17263;48.160;11.452;2023-06-22T08:11:22;33.20;84.10
30473;DHT22;17263;48.160;11.452;2023-06-22T08:13:51;33.20;83.70
30473;DHT22;17263;48.160;11.452;2023-06-22T08:16:17;32.70;84.50
30473;DHT22;17263;48.160;11.452;2023-06-22T08:18:43;32.30;85.80
30473;DHT22;17263;48.160;11.452;2023-06-22T08:21:09;32.30;86.20
30473;DHT22;17263;48.160;11.452;2023-06-22T08:23:37;32.70;86.00
30473;DHT22;17263;48.160;11.452;2023-06-22T08:26:03;32.90;85.40
30473;DHT22;17263;48.160;11.452;2023-06-22T08:28:29;33.20;84.20
30473;DHT22;17263;48.160;11.452;2023-06-22T08:30:55;33.20;83.20
30473;DHT22;17263;48.160;11.452;2023-06-22T08:33:21;33.30;84.30
30473;DHT22;17263;48.160;11.452;2023-06-22T08:35:49;33.30;82.20
30473;DHT22;17263;48.160;11.452;2023-06-22T08:38:16;33.00;82.80
30473;DHT22;17263;48.160;11.452;2023-06-22T08:40:44;33.00;83.10
30473;DHT22;17263;48.160;11.452;2023-06-22T08:43:10;32.60;83.40
30473;DHT22;17263;48.160;11.452;2023-06-22T08:45:36;32.20;84.30
30473;DHT22;17263;48.160;11.452;2023-06-22T08:48:02;32.10;85.30
30473;DHT22;17263;48.160;11.452;2023-06-22T08:50:28;31.90;85.40
30473;DHT22;17263;48.160;11.452;2023-06-22T08:52:54;31.80;86.60
30473;DHT22;17263;48.160;11.452;2023-06-22T08:55:20;31.70;86.90
30473;DHT22;17263;48.160;11.452;2023-06-22T08:57:46;31.60;86.90
30473;DHT22;17263;48.160;11.452;2023-06-22T09:00:13;31.70;86.50
30473;DHT22;17263;48.160;11.452;2023-06-22T09:02:43;31.90;86.60
30473;DHT22;17263;48.160;11.452;2023-06-22T09:05:09;32.30;86.60
30473;DHT22;17263;48.160;11.452;2023-06-22T09:07:35;32.50;86.20
30473;DHT22;17263;48.160;11.452;2023-06-22T09:10:01;33.10;84.30
30473;DHT22;17263;48.160;11.452;2023-06-22T09:12:30;33.20;82.90
30473;DHT22;17263;48.160;11.452;2023-06-22T09:14:56;33.30;82.70
30473;DHT22;17263;48.160;11.452;2023-06-22T09:17:22;33.20;82.70
30473;DHT22;17263;48.160;11.452;2023-06-22T09:19:48;33.20;82.70
30473;DHT22;17263;48.160;11.452;2023-06-22T09:22:14;33.20;83.50
30473;DHT22;17263;48.160;11.452;2023-06-22T09:24:40;33.30;82.30
30473;DHT22;17263;48.160;11.452;2023-06-22T09:27:06;33.50;82.30
30473;DHT22;17263;48.160;11.452;2023-06-22T09:29:32;33.70;80.40
30473;DHT22;17263;48.160;11.452;2023-06-22T09:32:01;33.70;81.20
30473;DHT22;17263;48.160;11.452;2023-06-22T09:34:27;33.90;80.60
30473;DHT22;17263;48.160;11.452;2023-06-22T09:36:53;34.00;79.10
30473;DHT22;17263;48.160;11.452;2023-06-22T09:39:20;34.00;79.30
30473;DHT22;17263;48.160;11.452;2023-06-22T09:41:46;33.90;78.30
30473;DHT22;17263;48.160;11.452;2023-06-22T09:44:12;33.80;78.70
30473;DHT22;17263;48.160;11.452;2023-06-22T09:46:38;33.70;79.80
30473;DHT22;17263;48.160;11.452;2023-06-22T09:49:04;33.70;79.50
30473;DHT22;17263;48.160;11.452;2023-06-22T09:51:30;33.80;78.30
30473;DHT22;17263;48.160;11.452;2023-06-22T09:53:57;33.90;77.80
30473;DHT22;17263;48.160;11.452;2023-06-22T09:56:24;33.90;78.50
30473;DHT22;17263;48.160;11.452;2023-06-22T09:58:50;33.90;78.30
30473;DHT22;17263;48.160;11.452;2023-06-22T10:01:18;34.10;77.40
30473;DHT22;17263;48.160;11.452;2023-06-22T10:03:44;34.00;76.50
30473;DHT22;17263;48.160;11.452;2023-06-22T10:06:10;34.00;76.70
30473;DHT22;17263;48.160;11.452;2023-06-22T10:08:36;34.10;75.50
30473;DHT22;17263;48.160;11.452;2023-06-22T10:11:05;34.00;76.00
30473;DHT22;17263;48.160;11.452;2023-06-22T10:13:32;34.10;76.10
30473;DHT22;17263;48.160;11.452;2023-06-22T10:15:58;34.00;76.00
30473;DHT22;17263;48.160;11.452;2023-06-22T10:18:24;34.10;74.60
30473;DHT22;17263;48.160;11.452;2023-06-22T10:20:50;34.20;74.70
30473;DHT22;17263;48.160;11.452;2023-06-22T10:23:18;34.10;75.70
30473;DHT22;17263;48.160;11.452;2023-06-22T10:25:44;34.10;74.60
30473;DHT22;17263;48.160;11.452;2023-06-22T10:28:10;34.20;73.40
30473;DHT22;17263;48.160;11.452;2023-06-22T10:30:41;34.10;74.30
30473;DHT22;17263;48.160;11.452;2023-06-22T10:33:08;34.00;74.30
30473;DHT22;17263;48.160;11.452;2023-06-22T10:35:35;33.80;74.60
30473;DHT22;17263;48.160;11.452;2023-06-22T10:38:04;33.80;73.40
30473;DHT22;17263;48.160;11.452;2023-06-22T10:40:30;33.80;73.60
30473;DHT22;17263;48.160;11.452;2023-06-22T10:42:56;33.60;73.70
30473;DHT22;17263;48.160;11.452;2023-06-22T10:45:22;33.50;74.10
30473;DHT22;17263;48.160;11.452;2023-06-22T10:47:49;33.20;74.40
30473;DHT22;17263;48.160;11.452;2023-06-22T10:50:15;33.10;75.20
30473;DHT22;17263;48.160;11.452;2023-06-22T10:52:41;33.10;75.40
30473;DHT22;17263;48.160;11.452;2023-06-22T10:55:08;32.80;76.70
30473;DHT22;17263;48.160;11.452;2023-06-22T10:57:35;32.80;76.60
30473;DHT22;17263;48.160;11.452;2023-06-22T11:00:02;32.50;78.70
30473;DHT22;17263;48.160;11.452;2023-06-22T11:02:31;32.20;79.00
30473;DHT22;17263;48.160;11.452;2023-06-22T11:04:57;32.10;79.70
30473;DHT22;17263;48.160;11.452;2023-06-22T11:07:26;31.80;80.70
30473;DHT22;17263;48.160;11.452;2023-06-22T11:09:55;31.70;81.50
30473;DHT22;17263;48.160;11.452;2023-06-22T11:12:21;31.50;83.10
30473;DHT22;17263;48.160;11.452;2023-06-22T11:14:47;31.60;82.90
30473;DHT22;17263;48.160;11.452;2023-06-22T11:17:13;31.60;83.10
30473;DHT22;17263;48.160;11.452;2023-06-22T11:19:39;31.80;83.10
30473;DHT22;17263;48.160;11.452;2023-06-22T11:22:05;31.70;83.80
30473;DHT22;17263;48.160;11.452;2023-06-22T11:24:31;31.80;82.80
30473;DHT22;17263;48.160;11.452;2023-06-22T11:26:58;32.00;83.50
30473;DHT22;17263;48.160;11.452;2023-06-22T11:29:24;32.00;83.90
30473;DHT22;17263;48.160;11.452;2023-06-22T11:31:50;32.10;82.90
30473;DHT22;17263;48.160;11.452;2023-06-22T11:34:16;32.40;81.20
30473;DHT22;17263;48.160;11.452;2023-06-22T11:36:42;32.40;82.00
30473;DHT22;17263;48.160;11.452;2023-06-22T11:39:09;32.40;81.30
30473;DHT22;17263;48.160;11.452;2023-06-22T11:41:36;32.40;81.90
30473;DHT22;17263;48.160;11.452;2023-06-22T11:44:02;32.40;81.30
30473;DHT22;17263;48.160;11.452;2023-06-22T11:46:30;32.30;82.10
30473;DHT22;17263;48.160;11.452;2023-06-22T11:48:57;32.30;82.00
30473;DHT22;17263;48.160;11.452;2023-06-22T11:51:23;32.30;81.10
30473;DHT22;17263;48.160;11.452;2023-06-22T11:53:49;32.30;80.90
30473;DHT22;17263;48.160;11.452;2023-06-22T11:56:15;32.30;81.40
30473;DHT22;17263;48.160;11.452;2023-06-22T11:58:41;32.40;81.70
30473;DHT22;17263;48.160;11.452;2023-06-22T12:01:07;32.40;81.30
30473;DHT22;17263;48.160;11.452;2023-06-22T12:03:33;32.40;81.60
30473;DHT22;17263;48.160;11.452;2023-06-22T12:05:59;32.30;81.20
30473;DHT22;17263;48.160;11.452;2023-06-22T12:08:25;32.20;82.10
30473;DHT22;17263;48.160;11.452;2023-06-22T12:10:51;32.00;83.00
30473;DHT22;17263;48.160;11.452;2023-06-22T12:13:19;32.00;81.40
30473;DHT22;17263;48.160;11.452;2023-06-22T12:15:45;32.20;81.20
30473;DHT22;17263;48.160;11.452;2023-06-22T12:18:11;32.20;82.30
30473;DHT22;17263;48.160;11.452;2023-06-22T12:20:40;32.40;81.60
30473;DHT22;17263;48.160;11.452;2023-06-22T12:23:06;32.50;81.40
30473;DHT22;17263;48.160;11.452;2023-06-22T12:25:32;32.50;80.20
30473;DHT22;17263;48.160;11.452;2023-06-22T12:27:58;32.40;80.30
30473;DHT22;17263;48.160;11.452;2023-06-22T12:30:24;32.30;80.50
30473;DHT22;17263;48.160;11.452;2023-06-22T12:32:50;32.30;81.60
30473;DHT22;17263;48.160;11.452;2023-06-22T12:35:17;32.50;80.90
30473;DHT22;17263;48.160;11.452;2023-06-22T12:37:43;32.60;79.60
30473;DHT22;17263;48.160;11.452;2023-06-22T12:40:10;32.80;79.80
30473;DHT22;17263;48.160;11.452;2023-06-22T12:42:36;32.70;79.30
30473;DHT22;17263;48.160;11.452;2023-06-22T12:45:02;32.60;80.00
30473;DHT22;17263;48.160;11.452;2023-06-22T12:47:28;32.40;80.40
30473;DHT22;17263;48.160;11.452;2023-06-22T12:49:54;32.40;81.20
30473;DHT22;17263;48.160;11.452;2023-06-22T12:52:21;32.40;80.90
30473;DHT22;17263;48.160;11.452;2023-06-22T12:54:47;32.40;81.30
30473;DHT22;17263;48.160;11.452;2023-06-22T12:57:13;32.40;80.80
30473;DHT22;17263;48.160;11.452;2023-06-22T12:59:39;32.30;81.40
30473;DHT22;17263;48.160;11.452;2023-06-22T13:02:05;32.30;79.70
30473;DHT22;17263;48.160;11.452;2023-06-22T13:04:31;32.40;80.80
30473;DHT22;17263;48.160;11.452;2023-06-22T13:06:57;32.40;82.00
30473;DHT22;17263;48.160;11.452;2023-06-22T13:09:23;32.50;82.10
30473;DHT22;17263;48.160;11.452;2023-06-22T13:11:49;32.60;81.90
30473;DHT22;17263;48.160;11.452;2023-06-22T13:14:15;32.60;81.60
30473;DHT22;17263;48.160;11.452;2023-06-22T13:16:42;32.70;80.90
30473;DHT22;17263;48.160;11.452;2023-06-22T13:19:08;32.80;81.00
30473;DHT22;17263;48.160;11.452;2023-06-22T13:21:34;32.80;80.40
30473;DHT22;17263;48.160;11.452;2023-06-22T13:24:00;32.90;80.20
30473;DHT22;17263;48.160;11.452;2023-06-22T13:26:27;33.00;80.10
30473;DHT22;17263;48.160;11.452;2023-06-22T13:28:54;33.00;78.90
30473;DHT22;17263;48.160;11.452;2023-06-22T13:31:20;33.00;79.20
30473;DHT22;17263;48.160;11.452;2023-06-22T13:33:47;33.00;78.60
30473;DHT22;17263;48.160;11.452;2023-06-22T13:36:14;32.90;77.50
30473;DHT22;17263;48.160;11.452;2023-06-22T13:38:41;32.90;76.80
30473;DHT22;17263;48.160;11.452;2023-06-22T13:41:07;33.00;77.40
30473;DHT22;17263;48.160;11.452;2023-06-22T13:43:33;33.10;78.10
30473;DHT22;17263;48.160;11.452;2023-06-22T13:45:59;33.30;78.00
30473;DHT22;17263;48.160;11.452;2023-06-22T13:48:25;33.30;78.30
30473;DHT22;17263;48.160;11.452;2023-06-22T13:50:52;33.30;78.60
30473;DHT22;17263;48.160;11.452;2023-06-22T13:53:18;33.20;78.10
30473;DHT22;17263;48.160;11.452;2023-06-22T13:55:44;33.20;77.70
30473;DHT22;17263;48.160;11.452;2023-06-22T13:58:10;33.30;76.10
30473;DHT22;17263;48.160;11.452;2023-06-22T14:00:36;33.30;76.00
30473;DHT22;17263;48.160;11.452;2023-06-22T14:03:03;33.30;75.20
30473;DHT22;17263;48.160;11.452;2023-06-22T14:05:29;33.30;75.10
30473;DHT22;17263;48.160;11.452;2023-06-22T14:07:55;33.20;75.40
30473;DHT22;17263;48.160;11.452;2023-06-22T14:10:21;33.20;75.60
30473;DHT22;17263;48.160;11.452;2023-06-22T14:12:47;33.20;76.50
30473;DHT22;17263;48.160;11.452;2023-06-22T14:15:13;33.10;76.10
30473;DHT22;17263;48.160;11.452;2023-06-22T14:17:39;33.10;76.60
30473;DHT22;17263;48.160;11.452;2023-06-22T14:20:05;33.10;75.60
30473;DHT22;17263;48.160;11.452;2023-06-22T14:22:33;33.00;75.30
30473;DHT22;17263;48.160;11.452;2023-06-22T14:25:01;32.80;75.90
30473;DHT22;17263;48.160;11.452;2023-06-22T14:27:27;32.80;76.00
30473;DHT22;17263;48.160;11.452;2023-06-22T14:29:53;32.80;78.10
30473;DHT22;17263;48.160;11.452;2023-06-22T14:32:19;32.80;77.80
30473;DHT22;17263;48.160;11.452;2023-06-22T14:34:45;32.70;77.20
30473;DHT22;17263;48.160;11.452;2023-06-22T14:37:11;32.70;78.00
30473;DHT22;17263;48.160;11.452;2023-06-22T14:39:41;32.70;76.30
30473;DHT22;17263;48.160;11.452;2023-06-22T14:42:08;32.60;76.40
30473;DHT22;17263;48.160;11.452;2023-06-22T14:44:34;32.50;76.90
30473;DHT22;17263;48.160;11.452;2023-06-22T14:47:01;32.50;76.40
30473;DHT22;17263;48.160;11.452;2023-06-22T14:49:27;32.50;76.30
30473;DHT22;17263;48.160;11.452;2023-06-22T14:51:53;32.40;75.40
30473;DHT22;17263;48.160;11.452;2023-06-22T14:54:19;32.40;75.30
30473;DHT22;17263;48.160;11.452;2023-06-22T14:56:46;32.30;75.80
30473;DHT22;17263;48.160;11.452;2023-06-22T14:59:13;32.20;74.80
30473;DHT22;17263;48.160;11.452;2023-06-22T15:01:39;32.20;74.80
30473;DHT22;17263;48.160;11.452;2023-06-22T15:04:05;32.20;74.30
30473;DHT22;17263;48.160;11.452;2023-06-22T15:06:32;32.00;74.10
30473;DHT22;17263;48.160;11.452;2023-06-22T15:08:58;32.00;73.70
30473;DHT22;17263;48.160;11.452;2023-06-22T15:11:24;32.00;72.80
30473;DHT22;17263;48.160;11.452;2023-06-22T15:13:50;32.00;73.30
30473;DHT22;17263;48.160;11.452;2023-06-22T15:16:16;31.90;72.80
30473;DHT22;17263;48.160;11.452;2023-06-22T15:18:42;31.80;72.80
30473;DHT22;17263;48.160;11.452;2023-06-22T15:21:08;31.90;72.40